createdAt,value
2022-08-09T00:00:08.171Z,100047.16
2022-08-09T00:02:49.058Z,100046.31
2022-08-09T00:06:15.687Z,100042.91
2022-08-09T00:08:11.352Z,100045.78
2022-08-09T00:10:40.700Z,100042.81
2022-08-09T00:13:16.982Z,100033.78
2022-08-09T00:15:59.970Z,100027.53
2022-08-09T00:18:31.394Z,100021.69
2022-08-09T00:21:02.891Z,100032.53
2022-08-09T00:23:57.564Z,100029.44
2022-08-09T00:26:17.267Z,100026.22
2022-08-09T00:28:52.652Z,100024.13
2022-08-09T00:31:55.799Z,100027.84
2022-08-09T00:34:10.891Z,100021.03
2022-08-09T00:36:37.902Z,100024.06
2022-08-09T00:39:06.744Z,100034.78
2022-08-09T00:44:11.081Z,100034.22
2022-08-09T00:44:31.179Z,100032.44
2022-08-09T00:47:05.181Z,100032.13
2022-08-09T00:49:36.579Z,100038.38
2022-08-09T00:52:06.149Z,100034.00
2022-08-09T00:54:45.494Z,100042.84
2022-08-09T00:57:12.515Z,100037.22
2022-08-09T00:59:46.532Z,100035.28
2022-08-09T01:02:21.631Z,100034.97
2022-08-09T01:05:02.630Z,100031.88
2022-08-09T01:08:01.175Z,100027.72
2022-08-09T01:10:40.821Z,100028.91
2022-08-09T01:13:22.802Z,100041.09
2022-08-09T01:15:52.931Z,100034.84
2022-08-09T01:18:30.185Z,100039.28
2022-08-09T01:21:17.706Z,100035.06
2022-08-09T01:24:02.678Z,100030.28
2022-08-09T01:26:55.893Z,100022.00
2022-08-09T01:29:41.214Z,100020.19
2022-08-09T01:32:31.153Z,100014.75
2022-08-09T01:35:29.111Z,100010.56
2022-08-09T01:38:09.235Z,99999.94
2022-08-09T01:40:42.075Z,100000.88
2022-08-09T01:43:10.363Z,99990.50
2022-08-09T01:45:46.371Z,99979.78
2022-08-09T01:48:19.267Z,99980.31
2022-08-09T01:50:55.051Z,99992.41
2022-08-09T01:53:29.242Z,99986.13
2022-08-09T01:56:07.494Z,99993.47
2022-08-09T01:58:35.550Z,99993.78
2022-08-09T02:01:03.074Z,99991.56
2022-08-09T02:03:31.526Z,99988.31
2022-08-09T02:06:04.006Z,99987.34
2022-08-09T02:08:57.640Z,99985.03
2022-08-09T02:11:25.751Z,99995.75
2022-08-09T02:14:10.555Z,99991.81
2022-08-09T02:16:59.389Z,99971.91
2022-08-09T02:19:35.005Z,99999.16
2022-08-09T02:22:27.503Z,100010.94
2022-08-09T02:25:01.788Z,99999.88
2022-08-09T02:27:57.755Z,100004.44
2022-08-09T02:30:17.882Z,100000.66
2022-08-09T02:32:47.738Z,100008.50
2022-08-09T02:35:23.104Z,100016.66
2022-08-09T02:38:06.725Z,100023.84
2022-08-09T02:40:35.891Z,100027.69
2022-08-09T02:43:03.386Z,100021.97
2022-08-09T02:45:39.912Z,100018.13
2022-08-09T02:48:19.637Z,100019.31
2022-08-09T02:50:59.922Z,100019.94
2022-08-09T02:53:47.366Z,100026.28
2022-08-09T02:56:27.924Z,100019.72
2022-08-09T02:58:55.101Z,100015.69
2022-08-09T03:01:29.065Z,100013.03
2022-08-09T03:04:18.088Z,100009.63
2022-08-09T03:06:45.450Z,100010.66
2022-08-09T03:09:13.426Z,100014.28
2022-08-09T03:12:10.535Z,99996.59
2022-08-09T03:14:29.309Z,99984.84
2022-08-09T03:16:58.443Z,99986.25
2022-08-09T03:19:52.449Z,99980.38
2022-08-09T03:22:24.941Z,99970.91
2022-08-09T03:25:05.752Z,99974.66
2022-08-09T03:27:45.275Z,99966.53
2022-08-09T03:30:13.490Z,99984.69
2022-08-09T03:32:41.130Z,99987.50
2022-08-09T03:35:24.310Z,99991.06
2022-08-09T03:37:54.530Z,99985.28
2022-08-09T03:40:24.603Z,99979.22
2022-08-09T03:42:51.614Z,99976.59
2022-08-09T03:46:04.164Z,99982.25
2022-08-09T03:48:05.436Z,99985.53
2022-08-09T03:50:33.401Z,99981.75
2022-08-09T03:53:03.165Z,99963.94
2022-08-09T03:55:30.233Z,99967.94
2022-08-09T03:58:09.756Z,99961.66
2022-08-09T04:00:44.695Z,99979.38
2022-08-09T04:03:24.535Z,99971.41
2022-08-09T04:05:58.860Z,99990.50
2022-08-09T04:08:28.795Z,99985.25
2022-08-09T04:10:55.911Z,100001.34
2022-08-09T04:14:37.742Z,100002.31
2022-08-09T04:16:19.672Z,100004.78
2022-08-09T04:18:47.840Z,99990.00
2022-08-09T04:21:15.875Z,99972.63
2022-08-09T04:23:53.598Z,99973.94
2022-08-09T04:26:23.380Z,99962.22
2022-08-09T04:28:50.217Z,99968.63
2022-08-09T04:31:16.837Z,99957.81
2022-08-09T04:33:52.381Z,99961.84
2022-08-09T04:36:25.500Z,99957.50
2022-08-09T04:38:56.925Z,99960.03
2022-08-09T04:41:32.357Z,99961.75
2022-08-09T04:44:06.683Z,99959.38
2022-08-09T04:46:57.498Z,99962.22
2022-08-09T04:49:40.862Z,99967.69
2022-08-09T04:52:09.953Z,99953.88
2022-08-09T04:54:36.820Z,99958.41
2022-08-09T04:57:04.060Z,99965.06
2022-08-09T04:59:31.162Z,99967.13
2022-08-09T05:01:58.243Z,99959.06
2022-08-09T05:04:30.647Z,99960.63
2022-08-09T05:06:58.380Z,99965.22
2022-08-09T05:09:24.993Z,99963.56
2022-08-09T05:12:09.771Z,99967.84
2022-08-09T05:14:41.270Z,99972.44
2022-08-09T05:18:36.897Z,99981.78
2022-08-09T05:19:56.733Z,99968.84
2022-08-09T05:22:33.402Z,99973.63
2022-08-09T05:25:04.415Z,99982.16
2022-08-09T05:27:31.292Z,99979.13
2022-08-09T05:29:57.938Z,99981.06
2022-08-09T05:32:26.194Z,99997.75
2022-08-09T05:34:56.826Z,99994.59
2022-08-09T05:37:23.843Z,99993.03
2022-08-09T05:39:51.783Z,99991.47
2022-08-09T05:42:21.830Z,99987.59
2022-08-09T05:44:53.491Z,99989.72
2022-08-09T05:47:22.758Z,99982.13
2022-08-09T05:50:30.922Z,99988.88
2022-08-09T05:52:42.046Z,99956.63
2022-08-09T05:55:18.058Z,99995.03
2022-08-09T05:57:55.511Z,99987.53
2022-08-09T06:00:28.871Z,99988.31
2022-08-09T06:03:00.400Z,99999.06
2022-08-09T06:05:31.095Z,100000.13
2022-08-09T06:08:19.666Z,99996.75
2022-08-09T06:10:53.464Z,99994.84
2022-08-09T06:13:21.504Z,99971.31
2022-08-09T06:15:52.326Z,99978.84
2022-08-09T06:18:25.507Z,99981.28
2022-08-09T06:20:56.936Z,99982.31
2022-08-09T06:23:55.170Z,99993.41
2022-08-09T06:26:13.663Z,100014.16
2022-08-09T06:28:43.404Z,100012.53
2022-08-09T06:31:10.504Z,100002.72
2022-08-09T06:33:41.064Z,100010.38
2022-08-09T06:36:09.371Z,99995.69
2022-08-09T06:38:38.752Z,100007.75
2022-08-09T06:41:18.871Z,100007.63
2022-08-09T06:43:46.961Z,99998.38
2022-08-09T06:46:39.756Z,100007.16
2022-08-09T06:49:01.413Z,100009.88
2022-08-09T06:51:28.346Z,100009.84
2022-08-09T06:53:55.425Z,100011.31
2022-08-09T06:56:30.893Z,100005.84
2022-08-09T07:00:52.508Z,100012.06
2022-08-09T07:01:58.132Z,100008.44
2022-08-09T07:04:26.929Z,100014.00
2022-08-09T07:07:00.722Z,100019.25
2022-08-09T07:09:57.142Z,100004.22
2022-08-09T07:12:18.023Z,100010.22
2022-08-09T07:14:51.114Z,100020.59
2022-08-09T07:17:19.818Z,100045.78
2022-08-09T07:19:47.962Z,100047.53
2022-08-09T07:22:18.090Z,100021.59
2022-08-09T07:24:49.356Z,100024.53
2022-08-09T07:27:33.366Z,100021.69
2022-08-09T07:30:02.011Z,100031.22
2022-08-09T07:32:33.637Z,100027.19
2022-08-09T07:35:10.097Z,100024.16
2022-08-09T07:37:42.895Z,100032.56
2022-08-09T07:40:17.246Z,100021.00
2022-08-09T07:42:54.476Z,100031.34
2022-08-09T07:45:37.284Z,100015.66
2022-08-09T07:48:06.999Z,100011.09
2022-08-09T07:50:36.840Z,100014.53
2022-08-09T07:53:05.135Z,100027.84
2022-08-09T07:55:41.697Z,100033.59
2022-08-09T07:58:21.611Z,100046.06
2022-08-09T08:00:59.072Z,100044.03
2022-08-09T08:03:33.579Z,100021.34
2022-08-09T08:06:04.395Z,100035.25
2022-08-09T08:09:00.418Z,100026.41
2022-08-09T08:12:11.583Z,100038.22
2022-08-09T08:14:06.494Z,100045.41
2022-08-09T08:16:33.424Z,100047.22
2022-08-09T08:19:02.793Z,100040.09
2022-08-09T08:21:31.211Z,100044.59
2022-08-09T08:24:01.237Z,100050.91
2022-08-09T08:26:41.822Z,100056.22
2022-08-09T08:29:27.732Z,100049.91
2022-08-09T08:32:04.498Z,100046.00
2022-08-09T08:34:34.364Z,100043.34
2022-08-09T08:37:02.102Z,100053.09
2022-08-09T08:39:28.845Z,100045.59
2022-08-09T08:41:58.702Z,100052.59
2022-08-09T08:44:29.554Z,100048.22
2022-08-09T08:47:03.378Z,100051.56
2022-08-09T08:49:48.686Z,100046.50
2022-08-09T08:55:15.283Z,100036.06
2022-08-09T08:57:57.290Z,100027.41
2022-08-09T09:00:30.026Z,100024.06
2022-08-09T09:03:08.567Z,100031.31
2022-08-09T09:06:00.875Z,100030.84
2022-08-09T09:08:30.537Z,100014.97
2022-08-09T09:11:02.617Z,100029.06
2022-08-09T09:13:34.751Z,100037.44
2022-08-09T09:16:13.857Z,100030.56
2022-08-09T09:18:45.863Z,100024.38
2022-08-09T09:21:14.884Z,100010.91
2022-08-09T09:23:57.349Z,100045.22
2022-08-09T09:26:25.990Z,100020.31
2022-08-09T09:29:03.992Z,100020.13
2022-08-09T09:32:03.491Z,100025.53
2022-08-09T09:34:24.835Z,100027.63
2022-08-09T09:36:57.425Z,100014.97
2022-08-09T09:39:54.757Z,100026.00
2022-08-09T09:42:29.577Z,100016.63
2022-08-09T09:45:08.110Z,100015.91
2022-08-09T09:47:47.796Z,99997.78
2022-08-09T09:50:17.517Z,100012.72
2022-08-09T09:52:53.497Z,100022.34
2022-08-09T09:55:28.709Z,100015.66
2022-08-09T09:58:19.238Z,100023.56
2022-08-09T10:00:52.770Z,100021.94
2022-08-09T10:03:42.740Z,100017.00
2022-08-09T10:06:11.681Z,100022.56
2022-08-09T10:08:44.247Z,100000.44
2022-08-09T10:11:59.774Z,100015.31
2022-08-09T10:14:31.836Z,100017.09
2022-08-09T10:17:40.071Z,100025.75
2022-08-09T10:19:58.818Z,100008.47
2022-08-09T10:22:34.139Z,100009.75
2022-08-09T10:25:11.880Z,100013.28
2022-08-09T10:27:56.041Z,99998.91
2022-08-09T10:34:04.519Z,100014.25
2022-08-09T10:36:00.911Z,100009.16
2022-08-09T10:38:43.225Z,100019.34
2022-08-09T10:41:17.832Z,100013.69
2022-08-09T10:43:52.602Z,99992.97
2022-08-09T10:46:54.557Z,100003.94
2022-08-09T10:49:51.817Z,99993.44
2022-08-09T10:53:00.019Z,99993.94
2022-08-09T10:55:35.796Z,99994.03
2022-08-09T10:58:34.618Z,100001.75
2022-08-09T11:03:02.734Z,99997.41
2022-08-09T11:04:27.983Z,99997.50
2022-08-09T11:06:59.596Z,99998.88
2022-08-09T11:09:41.209Z,99992.28
2022-08-09T11:12:18.490Z,99987.22
2022-08-09T11:15:05.753Z,99991.06
2022-08-09T11:17:32.700Z,99997.63
2022-08-09T11:20:22.658Z,99977.50
2022-08-09T11:22:55.379Z,99987.38
2022-08-09T11:25:45.111Z,100002.09
2022-08-09T11:28:34.574Z,99995.63
2022-08-09T11:31:04.191Z,99990.16
2022-08-09T11:33:46.211Z,99971.34
2022-08-09T11:36:30.430Z,99989.66
2022-08-09T11:39:02.287Z,99983.44
2022-08-09T11:41:38.536Z,99974.31
2022-08-09T11:44:08.118Z,100002.44
2022-08-09T11:46:57.217Z,99985.94
2022-08-09T11:50:54.037Z,99987.13
2022-08-09T11:53:21.256Z,99970.09
2022-08-09T11:55:52.068Z,99966.72
2022-08-09T11:58:32.556Z,99979.06
2022-08-09T12:01:08.588Z,99981.06
2022-08-09T12:03:57.201Z,99983.59
2022-08-09T12:06:32.669Z,99974.28
2022-08-09T12:09:19.535Z,99974.44
2022-08-09T12:12:03.239Z,99982.88
2022-08-09T12:14:48.830Z,99979.50
2022-08-09T12:17:34.417Z,99976.00
2022-08-09T12:20:34.585Z,99976.69
2022-08-09T12:23:02.886Z,99969.91
2022-08-09T12:25:37.402Z,99982.63
2022-08-09T12:29:14.482Z,99974.47
2022-08-09T12:31:31.259Z,99975.13
2022-08-09T12:34:06.185Z,99963.47
2022-08-09T12:36:33.621Z,99973.47
2022-08-09T12:39:01.517Z,99974.28
2022-08-09T12:41:36.364Z,99962.38
2022-08-09T12:44:10.306Z,99965.69
2022-08-09T12:46:41.806Z,99965.19
2022-08-09T12:49:10.035Z,99955.50
2022-08-09T12:52:01.204Z,99978.53
2022-08-09T12:54:24.464Z,99980.53
2022-08-09T12:56:54.093Z,99993.00
2022-08-09T12:59:23.462Z,99978.59
2022-08-09T13:01:59.221Z,99978.31
2022-08-09T13:04:36.497Z,99979.47
2022-08-09T13:07:19.961Z,99985.38
2022-08-09T13:10:02.561Z,99977.25
2022-08-09T13:12:29.385Z,99978.19
2022-08-09T13:15:09.774Z,99989.28
2022-08-09T13:18:03.479Z,99985.66
2022-08-09T13:20:37.769Z,99968.66
2022-08-09T13:24:16.560Z,99980.78
2022-08-09T13:26:41.799Z,99971.34
2022-08-09T13:29:12.981Z,99967.41
2022-08-09T13:32:15.154Z,99978.09
2022-08-09T13:34:41.687Z,99976.25
2022-08-09T13:37:08.966Z,99962.31
2022-08-09T13:41:46.924Z,99980.59
2022-08-09T13:42:26.387Z,99973.97
2022-08-09T13:44:53.454Z,99953.84
2022-08-09T13:47:44.217Z,99970.56
2022-08-09T13:50:18.244Z,99972.28
2022-08-09T13:52:56.202Z,99975.09
2022-08-09T13:55:23.050Z,99965.22
2022-08-09T13:57:56.018Z,99989.88
2022-08-09T14:00:28.537Z,99965.94
2022-08-09T14:03:03.335Z,99936.47
2022-08-09T14:05:59.171Z,99971.28
2022-08-09T14:08:29.248Z,99968.25
2022-08-09T14:10:57.063Z,99961.06
2022-08-09T14:14:15.918Z,99965.84
2022-08-09T14:16:18.370Z,99954.13
2022-08-09T14:18:49.589Z,99965.31
2022-08-09T14:21:22.498Z,99971.34
2022-08-09T14:23:55.546Z,99943.94
2022-08-09T14:26:30.528Z,99956.28
2022-08-09T14:29:08.103Z,99964.44
2022-08-09T14:31:54.054Z,99959.06
2022-08-09T14:34:32.261Z,99940.94
2022-08-09T14:37:01.851Z,99962.00
2022-08-09T14:39:46.575Z,99956.59
2022-08-09T14:42:40.362Z,99955.34
2022-08-09T14:46:39.965Z,99951.38
2022-08-09T14:47:58.495Z,99957.94
2022-08-09T14:50:30.981Z,99949.50
2022-08-09T14:52:58.694Z,99950.75
2022-08-09T14:55:25.359Z,99958.16
2022-08-09T14:57:56.005Z,99953.00
2022-08-09T15:00:23.020Z,99946.56
2022-08-09T15:02:51.825Z,99951.09
2022-08-09T15:05:19.139Z,99944.63
2022-08-09T15:07:56.222Z,99954.44
2022-08-09T15:10:24.759Z,99951.19
2022-08-09T15:12:52.530Z,99937.91
2022-08-09T15:15:20.232Z,99952.44
2022-08-09T15:17:52.355Z,99945.94
2022-08-09T15:22:01.085Z,99941.72
2022-08-09T15:24:02.198Z,99938.81
2022-08-09T15:25:55.603Z,99937.88
2022-08-09T15:28:27.235Z,99920.88
2022-08-09T15:31:08.713Z,99926.78
2022-08-09T15:34:19.607Z,99921.88
2022-08-09T15:36:28.723Z,99919.53
2022-08-09T15:38:57.071Z,99917.91
2022-08-09T15:41:32.158Z,99907.50
2022-08-09T15:44:02.546Z,99919.63
2022-08-09T15:46:32.784Z,99908.94
2022-08-09T15:49:22.352Z,99908.00
2022-08-09T15:52:02.728Z,99915.59
2022-08-09T15:54:49.468Z,99901.88
2022-08-09T15:57:34.111Z,99907.66
2022-08-09T16:00:14.126Z,99904.66
2022-08-09T16:02:48.139Z,99909.75
2022-08-09T16:05:22.443Z,99901.34
2022-08-09T16:07:50.871Z,99884.56
2022-08-09T16:10:54.912Z,99900.88
2022-08-09T16:13:05.241Z,99882.69
2022-08-09T16:16:10.835Z,99889.22
2022-08-09T16:18:32.657Z,99887.56
2022-08-09T16:20:59.339Z,99885.94
2022-08-09T16:23:27.019Z,99882.22
2022-08-09T16:26:00.964Z,99896.38
2022-08-09T16:28:29.629Z,99894.28
2022-08-09T16:30:58.877Z,99890.66
2022-08-09T16:33:26.544Z,99891.75
2022-08-09T16:35:59.072Z,99887.13
2022-08-09T16:38:27.594Z,99892.25
2022-08-09T16:40:56.451Z,99907.16
2022-08-09T16:43:23.142Z,99893.97
2022-08-09T16:45:53.809Z,99903.44
2022-08-09T16:48:42.730Z,99906.97
2022-08-09T16:51:14.048Z,99906.50
2022-08-09T16:54:08.982Z,99902.53
2022-08-09T16:56:30.670Z,99910.09
2022-08-09T16:58:57.848Z,99915.09
2022-08-09T17:01:25.120Z,99919.72
2022-08-09T17:03:52.075Z,99929.13
2022-08-09T17:06:31.280Z,99920.91
2022-08-09T17:09:11.723Z,99933.84
2022-08-09T17:11:48.000Z,99922.25
2022-08-09T17:14:27.611Z,99928.28
2022-08-09T17:17:01.652Z,99926.00
2022-08-09T17:20:05.074Z,99920.22
2022-08-09T17:22:23.956Z,99922.63
2022-08-09T17:25:10.282Z,99929.03
2022-08-09T17:27:48.751Z,99931.69
2022-08-09T17:30:15.618Z,99942.13
2022-08-09T17:32:45.470Z,99938.03
2022-08-09T17:35:14.108Z,99941.28
2022-08-09T17:38:12.745Z,99938.59
2022-08-09T17:40:29.660Z,99940.69
2022-08-09T17:42:59.820Z,99943.13
2022-08-09T17:46:03.356Z,99951.47
2022-08-09T17:48:29.280Z,99942.00
2022-08-09T17:50:59.353Z,99935.84
2022-08-09T17:53:43.024Z,99945.41
2022-08-09T17:56:14.633Z,99946.38
2022-08-09T17:58:44.882Z,99955.66
2022-08-09T18:01:15.382Z,99956.78
2022-08-09T18:03:49.240Z,99962.56
2022-08-09T18:06:28.782Z,99950.59
2022-08-09T18:09:03.424Z,99952.03
2022-08-09T18:11:46.846Z,99948.19
2022-08-09T18:14:23.265Z,99956.38
2022-08-09T18:16:53.146Z,99957.84
2022-08-09T18:20:56.208Z,99961.34
2022-08-09T18:22:16.617Z,99947.31
2022-08-09T18:24:45.539Z,99948.66
2022-08-09T18:27:49.239Z,99950.72
2022-08-09T18:30:40.979Z,99940.31
2022-08-09T18:32:47.710Z,99935.38
2022-08-09T18:35:22.369Z,99940.81
2022-08-09T18:38:08.206Z,99924.84
2022-08-09T18:40:35.576Z,99936.31
2022-08-09T18:43:03.778Z,99948.78
2022-08-09T18:46:45.945Z,99950.22
2022-08-09T18:48:17.893Z,99946.84
2022-08-09T18:50:44.830Z,99950.59
2022-08-09T18:53:16.634Z,99959.09
2022-08-09T18:55:56.063Z,99962.69
2022-08-09T18:58:32.069Z,99969.09
2022-08-09T19:01:00.404Z,99970.44
2022-08-09T19:03:28.602Z,99967.06
2022-08-09T19:06:03.426Z,99939.38
2022-08-09T19:08:30.947Z,99942.75
2022-08-09T19:10:57.601Z,99926.56
2022-08-09T19:13:49.801Z,99945.03
2022-08-09T19:16:11.411Z,99931.16
2022-08-09T19:18:45.308Z,99941.19
2022-08-09T19:21:12.214Z,99944.56
2022-08-09T19:24:32.796Z,99950.38
2022-08-09T19:26:29.547Z,99945.41
2022-08-09T19:29:15.309Z,99945.03
2022-08-09T19:31:49.370Z,99937.44
2022-08-09T19:34:23.138Z,99936.59
2022-08-09T19:36:52.626Z,99925.72
2022-08-09T19:39:20.662Z,99933.44
2022-08-09T19:41:56.277Z,99944.69
2022-08-09T19:44:23.855Z,99933.47
2022-08-09T19:46:53.534Z,99936.94
2022-08-09T19:50:09.025Z,99935.53
2022-08-09T19:52:08.446Z,99915.31
2022-08-09T19:54:35.070Z,99914.50
2022-08-09T19:57:02.366Z,99891.03
2022-08-09T19:59:57.602Z,99936.13
2022-08-09T20:04:17.882Z,99922.09
2022-08-09T20:05:11.552Z,99925.25
2022-08-09T20:08:00.255Z,99916.41
2022-08-09T20:10:36.368Z,99923.91
2022-08-09T20:13:05.611Z,99922.19
2022-08-09T20:16:38.491Z,99915.78
2022-08-09T20:18:20.266Z,99903.53
2022-08-09T20:20:51.052Z,99917.22
2022-08-09T20:23:21.109Z,99916.00
2022-08-09T20:25:52.324Z,99905.25
2022-08-09T20:28:28.176Z,99918.19
2022-08-09T20:31:04.938Z,99922.03
2022-08-09T20:33:39.019Z,99906.59
2022-08-09T20:36:08.839Z,99920.22
2022-08-09T20:39:02.657Z,99901.84
2022-08-09T20:41:32.170Z,99926.00
2022-08-09T20:44:02.346Z,99919.97
2022-08-09T20:46:41.808Z,99925.06
2022-08-09T20:49:11.405Z,99922.28
2022-08-09T20:51:41.535Z,99921.53
2022-08-09T20:54:12.540Z,99909.09
2022-08-09T20:56:46.794Z,99915.13
2022-08-09T20:59:17.234Z,99915.38
2022-08-09T21:01:51.599Z,99918.03
2022-08-09T21:05:51.579Z,99900.38
2022-08-09T21:07:11.634Z,99903.38
2022-08-09T21:09:56.797Z,99907.03
2022-08-09T21:15:16.465Z,99898.09
2022-08-09T21:18:23.758Z,99906.03
2022-08-09T21:20:31.035Z,99887.31
2022-08-09T21:22:59.584Z,99903.59
2022-08-09T21:25:56.432Z,99899.66
2022-08-09T21:28:34.158Z,99900.59
2022-08-09T21:31:17.025Z,99902.53
2022-08-09T21:33:50.906Z,99910.50
2022-08-09T21:36:25.854Z,99904.69
2022-08-09T21:38:56.994Z,99886.91
2022-08-09T21:42:04.514Z,99894.75
2022-08-09T21:44:34.385Z,99890.19
2022-08-09T21:47:05.927Z,99902.28
2022-08-09T21:49:40.523Z,99897.06
2022-08-09T21:52:17.884Z,99909.13
2022-08-09T21:55:03.409Z,99898.25
2022-08-09T21:57:38.664Z,99908.88
2022-08-09T22:00:37.753Z,99910.09
2022-08-09T22:03:07.254Z,99913.22
2022-08-09T22:05:36.799Z,99916.50
2022-08-09T22:08:13.903Z,99914.06
2022-08-09T22:11:05.176Z,99909.31
2022-08-09T22:13:34.268Z,99900.31
2022-08-09T22:16:03.689Z,99909.50
2022-08-09T22:18:32.664Z,99909.25
2022-08-09T22:21:00.491Z,99903.34
2022-08-09T22:23:35.714Z,99890.63
2022-08-09T22:26:33.910Z,99895.59
2022-08-09T22:29:05.391Z,99896.59
2022-08-09T22:31:35.697Z,99898.25
2022-08-09T22:34:02.358Z,99883.88
2022-08-09T22:36:28.987Z,99884.78
2022-08-09T22:39:04.490Z,99873.88
2022-08-09T22:41:31.099Z,99878.13
2022-08-09T22:44:01.666Z,99885.84
2022-08-09T22:48:14.556Z,99866.38
2022-08-09T22:49:16.098Z,99880.25
2022-08-09T22:51:49.277Z,99883.88
2022-08-09T22:54:21.376Z,99876.97
2022-08-09T22:56:56.821Z,99878.56
2022-08-09T22:59:56.182Z,99884.38
2022-08-09T23:02:11.026Z,99881.38
2022-08-09T23:04:53.724Z,99878.00
2022-08-09T23:08:22.492Z,99875.34
2022-08-09T23:10:28.015Z,99877.38
2022-08-09T23:12:54.747Z,99875.19
2022-08-09T23:15:21.342Z,99876.38
2022-08-09T23:17:47.995Z,99873.84
2022-08-09T23:20:14.660Z,99878.06
2022-08-09T23:22:41.283Z,99879.88
2022-08-09T23:25:08.279Z,99875.53
2022-08-09T23:27:35.150Z,99865.25
2022-08-09T23:30:02.106Z,99868.03
2022-08-09T23:32:28.825Z,99858.66
2022-08-09T23:34:55.533Z,99860.53
2022-08-09T23:37:22.974Z,99862.22
2022-08-09T23:39:52.391Z,99890.84
2022-08-09T23:42:18.964Z,99881.69
2022-08-09T23:44:45.575Z,99877.44
2022-08-09T23:47:12.283Z,99878.63
2022-08-09T23:49:38.901Z,99860.19
2022-08-09T23:52:05.530Z,99883.50
2022-08-09T23:54:32.100Z,99878.63
2022-08-09T23:56:58.899Z,99866.44
2022-08-09T23:59:25.982Z,99854.03
